createdAt,value
2023-03-24T00:01:54.420Z,4.03
2023-03-24T00:04:42.642Z,4.10
2023-03-24T00:07:30.514Z,4.20
2023-03-24T00:10:19.255Z,3.70
2023-03-24T00:13:04.573Z,4.50
2023-03-24T00:15:49.755Z,4.15
2023-03-24T00:18:36.879Z,3.83
2023-03-24T00:21:26.302Z,4.43
2023-03-24T00:24:12.668Z,4.35
2023-03-24T00:26:57.806Z,4.00
2023-03-24T00:29:44.084Z,4.00
2023-03-24T00:32:30.292Z,4.07
2023-03-24T00:35:17.731Z,4.57
2023-03-24T00:38:03.892Z,4.38
2023-03-24T00:40:50.369Z,3.97
2023-03-24T00:43:35.796Z,4.13
2023-03-24T00:46:30.201Z,4.38
2023-03-24T00:49:17.055Z,3.88
2023-03-24T00:52:09.863Z,4.70
2023-03-24T00:54:58.038Z,4.03
2023-03-24T00:57:51.537Z,4.13
2023-03-24T01:00:42.465Z,3.85
2023-03-24T01:03:27.995Z,4.20
2023-03-24T01:06:13.869Z,3.67
2023-03-24T01:08:59.254Z,3.60
2023-03-24T01:11:45.277Z,3.97
2023-03-24T01:14:32.265Z,4.13
2023-03-24T01:17:19.343Z,3.58
2023-03-24T01:20:08.121Z,4.18
2023-03-24T01:22:53.548Z,3.72
2023-03-24T01:25:39.894Z,3.65
2023-03-24T01:28:25.835Z,3.83
2023-03-24T01:31:11.889Z,3.28
2023-03-24T01:33:57.380Z,3.85
2023-03-24T01:36:42.881Z,3.72
2023-03-24T01:39:28.365Z,4.00
2023-03-24T01:42:22.961Z,3.60
2023-03-24T01:45:36.354Z,4.10
2023-03-24T01:48:33.837Z,3.53
2023-03-24T01:51:41.617Z,3.30
2023-03-24T01:54:33.685Z,3.92
2023-03-24T01:57:29.266Z,3.90
2023-03-24T02:00:18.476Z,3.65
2023-03-24T02:03:25.242Z,4.35
2023-03-24T02:06:15.507Z,3.83
2023-03-24T02:09:01.764Z,3.60
2023-03-24T02:11:48.164Z,2.75
2023-03-24T02:14:33.764Z,2.80
2023-03-24T02:17:25.040Z,2.70
2023-03-24T02:20:25.131Z,2.10
2023-03-24T02:23:33.766Z,2.13
2023-03-24T02:26:39.654Z,1.27
2023-03-24T02:30:04.303Z,1.50
2023-03-24T02:33:05.287Z,1.23
2023-03-24T02:36:24.954Z,1.42
2023-03-24T02:39:41.800Z,1.45
2023-03-24T02:42:52.315Z,1.30
2023-03-24T02:45:50.440Z,1.42
2023-03-24T02:49:01.043Z,1.02
2023-03-24T02:51:56.179Z,1.42
2023-03-24T02:54:50.072Z,1.30
2023-03-24T02:57:57.242Z,1.38
2023-03-24T03:01:15.724Z,1.42
2023-03-24T03:04:32.968Z,1.63
2023-03-24T03:07:25.034Z,1.63
2023-03-24T03:10:22.687Z,1.40
2023-03-24T03:13:18.247Z,1.40
2023-03-24T03:16:13.633Z,1.55
2023-03-24T03:19:03.457Z,1.30
2023-03-24T03:21:50.637Z,1.50
2023-03-24T03:24:39.940Z,1.33
2023-03-24T03:27:38.830Z,1.35
2023-03-24T03:30:45.299Z,1.33
2023-03-24T03:33:40.579Z,1.40
2023-03-24T03:36:30.392Z,1.67
2023-03-24T03:39:31.117Z,2.05
2023-03-24T03:42:19.699Z,1.48
2023-03-24T03:45:08.274Z,1.73
2023-03-24T03:47:54.379Z,1.67
2023-03-24T03:50:39.877Z,1.58
2023-03-24T03:53:33.075Z,1.83
2023-03-24T03:56:22.658Z,1.40
2023-03-24T03:59:33.977Z,1.80
2023-03-24T04:02:40.272Z,1.73
2023-03-24T04:05:51.734Z,1.52
2023-03-24T04:09:24.201Z,1.60
2023-03-24T04:12:09.481Z,1.80
2023-03-24T04:15:31.902Z,2.08
2023-03-24T04:19:00.306Z,1.80
2023-03-24T04:21:58.347Z,1.38
2023-03-24T04:24:54.655Z,1.92
2023-03-24T04:27:57.022Z,1.48
2023-03-24T04:30:56.015Z,1.77
2023-03-24T04:33:46.301Z,1.83
2023-03-24T04:36:56.852Z,1.75
2023-03-24T04:39:47.952Z,2.03
2023-03-24T04:42:39.584Z,1.63
2023-03-24T04:45:25.663Z,1.65
2023-03-24T04:48:37.026Z,2.30
2023-03-24T04:54:23.165Z,2.00
2023-03-24T04:57:12.708Z,2.08
2023-03-24T05:00:07.734Z,2.60
2023-03-24T05:02:53.744Z,2.20
2023-03-24T05:05:48.306Z,2.10
2023-03-24T05:08:33.904Z,2.50
2023-03-24T05:11:21.112Z,2.17
2023-03-24T05:14:16.876Z,2.55
2023-03-24T05:17:02.761Z,2.45
2023-03-24T05:19:48.062Z,2.20
2023-03-24T05:22:33.597Z,2.63
2023-03-24T05:25:20.077Z,2.67
2023-03-24T05:28:05.724Z,2.13
2023-03-24T05:30:52.201Z,2.15
2023-03-24T05:34:00.148Z,2.08
2023-03-24T05:36:47.075Z,2.70
2023-03-24T05:39:34.490Z,2.33
2023-03-24T05:42:25.181Z,2.97
2023-03-24T05:45:11.833Z,3.08
2023-03-24T05:47:57.412Z,3.70
2023-03-24T05:50:55.066Z,3.08
2023-03-24T05:53:41.079Z,3.45
2023-03-24T05:56:35.853Z,3.05
2023-03-24T05:59:22.677Z,2.88
2023-03-24T06:02:26.896Z,2.60
2023-03-24T06:05:21.396Z,3.20
2023-03-24T06:08:06.765Z,2.80
2023-03-24T06:11:00.366Z,3.50
2023-03-24T06:13:45.801Z,3.10
2023-03-24T06:16:33.982Z,3.25
2023-03-24T06:19:22.562Z,3.20
2023-03-24T06:22:26.842Z,2.95
2023-03-24T06:25:16.535Z,2.97
2023-03-24T06:28:12.131Z,3.20
2023-03-24T06:30:58.760Z,4.05
2023-03-24T06:33:53.621Z,3.25
2023-03-24T06:36:38.993Z,3.05
2023-03-24T06:39:26.276Z,2.83
2023-03-24T06:42:11.955Z,3.13
2023-03-24T06:44:57.262Z,3.60
2023-03-24T06:47:42.953Z,3.40
2023-03-24T06:50:33.020Z,3.42
2023-03-24T06:53:23.255Z,3.28
2023-03-24T06:56:08.604Z,3.22
2023-03-24T06:59:00.394Z,3.15
2023-03-24T07:01:53.201Z,3.15
2023-03-24T07:04:45.687Z,3.15
2023-03-24T07:10:50.628Z,2.83
2023-03-24T07:13:36.162Z,2.90
2023-03-24T07:16:23.674Z,3.20
2023-03-24T07:19:18.176Z,3.85
2023-03-24T07:22:08.471Z,2.88
2023-03-24T07:25:09.613Z,3.28
2023-03-24T07:28:02.153Z,2.97
2023-03-24T07:30:47.639Z,2.97
2023-03-24T07:33:33.367Z,2.75
2023-03-24T07:36:18.934Z,3.17
2023-03-24T07:39:05.059Z,3.05
2023-03-24T07:41:53.368Z,3.20
2023-03-24T07:44:55.030Z,3.33
2023-03-24T07:47:45.069Z,3.30
2023-03-24T07:50:31.367Z,3.17
2023-03-24T07:53:19.957Z,3.85
2023-03-24T07:56:05.839Z,3.28
2023-03-24T07:58:51.620Z,3.65
2023-03-24T08:01:46.606Z,3.10
2023-03-24T08:04:33.453Z,3.25
2023-03-24T08:07:24.523Z,2.95
2023-03-24T08:10:11.677Z,2.55
2023-03-24T08:12:57.885Z,2.80
2023-03-24T08:15:43.483Z,2.75
2023-03-24T08:18:28.697Z,3.13
2023-03-24T08:21:14.009Z,3.58
2023-03-24T08:23:59.551Z,3.38
2023-03-24T08:26:46.517Z,3.03
2023-03-24T08:29:34.694Z,3.10
2023-03-24T08:32:19.902Z,2.75
2023-03-24T08:35:06.079Z,3.10
2023-03-24T08:37:52.627Z,3.45
2023-03-24T08:40:40.350Z,2.92
2023-03-24T08:43:26.145Z,3.03
2023-03-24T08:46:13.679Z,2.70
2023-03-24T08:49:00.416Z,2.70
2023-03-24T08:51:46.345Z,2.17
2023-03-24T08:54:31.376Z,2.45
2023-03-24T08:57:17.837Z,2.47
2023-03-24T09:00:10.467Z,2.97
2023-03-24T09:02:56.806Z,2.97
2023-03-24T09:05:44.790Z,2.45
2023-03-24T09:08:31.506Z,2.58
2023-03-24T09:11:19.062Z,3.08
2023-03-24T09:14:04.514Z,2.45
2023-03-24T09:16:50.260Z,2.55
2023-03-24T09:19:35.499Z,2.95
2023-03-24T09:22:21.163Z,2.55
2023-03-24T09:25:07.729Z,2.38
2023-03-24T09:27:53.103Z,3.08
2023-03-24T09:30:38.317Z,2.13
2023-03-24T09:33:24.126Z,3.03
2023-03-24T09:36:10.509Z,2.13
2023-03-24T09:38:55.695Z,2.40
2023-03-24T09:41:44.231Z,2.03
2023-03-24T09:44:46.027Z,2.53
2023-03-24T09:47:41.942Z,2.20
2023-03-24T09:50:29.600Z,2.40
2023-03-24T09:53:38.224Z,2.28
2023-03-24T09:56:25.737Z,2.70
2023-03-24T09:59:21.244Z,2.00
2023-03-24T10:02:16.228Z,2.00
2023-03-24T10:05:01.708Z,1.83
2023-03-24T10:07:56.904Z,2.38
2023-03-24T10:11:01.302Z,2.10
2023-03-24T10:14:17.663Z,2.30
2023-03-24T10:17:12.278Z,2.40
2023-03-24T10:20:32.045Z,2.75
2023-03-24T10:23:31.796Z,3.17
2023-03-24T10:26:44.549Z,3.05
2023-03-24T10:29:33.041Z,2.58
2023-03-24T10:32:26.498Z,2.80
2023-03-24T10:35:21.018Z,2.58
2023-03-24T10:38:16.961Z,2.63
2023-03-24T10:41:02.688Z,2.38
2023-03-24T10:43:51.687Z,2.22
2023-03-24T10:46:44.223Z,2.40
2023-03-24T10:49:30.225Z,2.20
2023-03-24T10:52:15.555Z,2.75
2023-03-24T10:55:06.291Z,2.13
2023-03-24T10:57:56.403Z,2.38
2023-03-24T11:00:45.185Z,2.70
2023-03-24T11:03:32.662Z,2.40
2023-03-24T11:06:21.139Z,2.17
2023-03-24T11:09:21.119Z,2.45
2023-03-24T11:12:22.115Z,1.90
2023-03-24T11:15:23.505Z,1.90
2023-03-24T11:18:12.208Z,2.28
2023-03-24T11:21:04.054Z,1.75
2023-03-24T11:23:49.959Z,2.33
2023-03-24T11:26:38.261Z,2.53
2023-03-24T11:29:25.602Z,2.53
2023-03-24T11:32:20.704Z,2.42
2023-03-24T11:35:08.994Z,2.75
2023-03-24T11:37:54.394Z,2.58
2023-03-24T11:40:54.003Z,2.05
2023-03-24T11:43:39.412Z,2.53
2023-03-24T11:46:26.590Z,2.40
2023-03-24T11:49:15.867Z,1.92
2023-03-24T11:52:04.341Z,2.40
2023-03-24T11:54:49.704Z,2.60
2023-03-24T11:58:06.246Z,2.00
2023-03-24T12:01:05.207Z,2.30
2023-03-24T12:03:56.978Z,2.13
2023-03-24T12:07:11.243Z,2.13
2023-03-24T12:10:06.188Z,1.80
2023-03-24T12:13:16.028Z,1.90
2023-03-24T12:16:40.372Z,2.03
2023-03-24T12:19:46.854Z,2.00
2023-03-24T12:23:01.167Z,1.90
2023-03-24T12:26:16.900Z,2.10
2023-03-24T12:29:08.034Z,1.85
2023-03-24T12:32:04.810Z,1.88
2023-03-24T12:35:20.331Z,1.58
2023-03-24T12:38:30.364Z,1.30
2023-03-24T12:41:39.252Z,1.55
2023-03-24T12:44:43.082Z,2.00
2023-03-24T12:47:58.797Z,2.38
2023-03-24T12:51:25.816Z,2.03
2023-03-24T12:54:29.839Z,1.90
2023-03-24T12:57:19.426Z,1.23
2023-03-24T13:00:33.025Z,1.65
2023-03-24T13:03:25.784Z,2.40
2023-03-24T13:06:19.394Z,2.15
2023-03-24T13:09:08.511Z,1.85
2023-03-24T13:12:13.221Z,2.28
2023-03-24T13:15:22.599Z,2.13
2023-03-24T13:18:11.039Z,2.33
2023-03-24T13:21:04.407Z,2.45
2023-03-24T13:24:12.133Z,2.05
2023-03-24T13:27:14.813Z,2.03
2023-03-24T13:30:15.721Z,2.08
2023-03-24T13:33:06.651Z,2.20
2023-03-24T13:35:53.577Z,2.20
2023-03-24T13:38:44.616Z,2.92
2023-03-24T13:41:34.957Z,2.10
2023-03-24T13:44:23.655Z,1.52
2023-03-24T13:47:12.762Z,1.77
2023-03-24T13:50:02.210Z,1.75
2023-03-24T13:52:49.663Z,1.60
2023-03-24T13:55:38.093Z,1.17
2023-03-24T13:58:44.105Z,1.00
2023-03-24T14:01:44.003Z,1.50
2023-03-24T14:04:42.790Z,1.48
2023-03-24T14:07:41.758Z,1.52
2023-03-24T14:10:36.429Z,1.33
2023-03-24T14:13:22.113Z,1.73
2023-03-24T14:16:47.659Z,1.63
2023-03-24T14:19:40.426Z,1.55
2023-03-24T14:22:39.757Z,1.52
2023-03-24T14:25:32.966Z,1.80
2023-03-24T14:28:37.416Z,1.77
2023-03-24T14:31:48.834Z,1.70
2023-03-24T14:34:37.493Z,1.60
2023-03-24T14:37:23.792Z,1.80
2023-03-24T14:40:29.504Z,1.85
2023-03-24T14:43:24.649Z,1.65
2023-03-24T14:46:22.211Z,1.35
2023-03-24T14:49:23.491Z,1.70
2023-03-24T14:52:30.637Z,1.50
2023-03-24T14:55:19.390Z,1.65
2023-03-24T14:58:35.654Z,1.70
2023-03-24T15:01:26.585Z,1.58
2023-03-24T15:04:13.622Z,1.70
2023-03-24T15:07:03.715Z,1.30
2023-03-24T15:09:50.313Z,1.45
2023-03-24T15:12:36.578Z,1.08
2023-03-24T15:15:23.562Z,1.50
2023-03-24T15:18:17.844Z,1.10
2023-03-24T15:21:23.658Z,1.30
2023-03-24T15:24:21.119Z,1.27
2023-03-24T15:27:06.554Z,1.42
2023-03-24T15:29:59.175Z,1.23
2023-03-24T15:32:46.132Z,1.50
2023-03-24T15:35:34.148Z,1.80
2023-03-24T15:38:27.440Z,2.22
2023-03-24T15:41:15.624Z,1.70
2023-03-24T15:44:01.011Z,1.90
2023-03-24T15:46:47.284Z,1.70
2023-03-24T15:49:35.568Z,1.85
2023-03-24T15:52:31.400Z,2.05
2023-03-24T15:55:28.556Z,2.05
2023-03-24T15:58:28.486Z,1.65
2023-03-24T16:01:18.004Z,1.70
2023-03-24T16:04:11.779Z,1.42
2023-03-24T16:06:57.849Z,1.58
2023-03-24T16:09:44.869Z,1.95
2023-03-24T16:12:30.223Z,1.20
2023-03-24T16:15:15.782Z,1.52
2023-03-24T16:18:01.101Z,1.80
2023-03-24T16:20:46.703Z,1.80
2023-03-24T16:23:32.385Z,1.33
2023-03-24T16:26:23.626Z,1.42
2023-03-24T16:29:21.723Z,1.10
2023-03-24T16:32:08.725Z,1.55
2023-03-24T16:34:53.917Z,1.77
2023-03-24T16:37:39.486Z,1.35
2023-03-24T16:40:50.677Z,1.77
2023-03-24T16:43:36.307Z,1.65
2023-03-24T16:46:31.533Z,1.50
2023-03-24T16:49:18.330Z,1.60
2023-03-24T16:52:04.213Z,1.55
2023-03-24T16:54:50.451Z,1.40
2023-03-24T16:57:37.453Z,1.65
2023-03-24T17:00:24.468Z,1.20
2023-03-24T17:03:10.371Z,1.42
2023-03-24T17:05:57.575Z,1.27
2023-03-24T17:08:45.052Z,1.40
2023-03-24T17:11:34.013Z,1.48
2023-03-24T17:14:19.676Z,1.42
2023-03-24T17:17:10.735Z,1.65
2023-03-24T17:19:57.966Z,1.88
2023-03-24T17:22:45.278Z,1.50
2023-03-24T17:25:30.458Z,1.80
2023-03-24T17:28:17.369Z,2.28
2023-03-24T17:31:03.333Z,1.60
2023-03-24T17:33:48.679Z,1.40
2023-03-24T17:36:34.221Z,1.55
2023-03-24T17:39:21.537Z,1.55
2023-03-24T17:42:06.808Z,1.85
2023-03-24T17:44:52.215Z,1.23
2023-03-24T17:47:38.401Z,1.40
2023-03-24T17:50:25.322Z,1.42
2023-03-24T17:53:13.421Z,1.30
2023-03-24T17:56:05.590Z,1.35
2023-03-24T17:58:54.454Z,1.35
2023-03-24T18:01:40.441Z,1.20
2023-03-24T18:04:26.235Z,1.10
2023-03-24T18:07:11.769Z,1.67
2023-03-24T18:09:57.382Z,1.27
2023-03-24T18:12:42.521Z,1.50
2023-03-24T18:15:28.069Z,1.38
2023-03-24T18:18:13.509Z,1.40
2023-03-24T18:20:58.965Z,1.40
2023-03-24T18:23:46.202Z,1.95
2023-03-24T18:26:31.423Z,1.27
2023-03-24T18:29:17.135Z,1.48
2023-03-24T18:32:04.347Z,1.67
2023-03-24T18:34:50.734Z,1.70
2023-03-24T18:37:36.230Z,1.77
2023-03-24T18:40:21.461Z,1.20
2023-03-24T18:43:06.999Z,1.40
2023-03-24T18:45:52.348Z,1.40
2023-03-24T18:48:39.336Z,1.05
2023-03-24T18:51:25.785Z,1.52
2023-03-24T18:54:12.753Z,1.45
2023-03-24T18:56:58.452Z,2.40
2023-03-24T18:59:43.758Z,1.92
2023-03-24T19:02:29.504Z,1.80
2023-03-24T19:05:15.268Z,1.60
2023-03-24T19:08:01.579Z,1.52
2023-03-24T19:10:47.613Z,1.60
2023-03-24T19:13:33.818Z,2.03
2023-03-24T19:16:20.055Z,1.70
2023-03-24T19:19:06.694Z,1.90
2023-03-24T19:21:52.025Z,2.05
2023-03-24T19:24:37.676Z,1.70
2023-03-24T19:27:23.558Z,1.80
2023-03-24T19:30:09.481Z,1.45
2023-03-24T19:32:55.717Z,1.60
2023-03-24T19:35:41.273Z,1.63
2023-03-24T19:38:27.084Z,1.98
2023-03-24T19:41:13.997Z,1.85
2023-03-24T19:43:59.375Z,2.05
2023-03-24T19:46:45.119Z,2.00
2023-03-24T19:49:30.453Z,1.70
2023-03-24T19:52:16.348Z,2.10
2023-03-24T19:55:02.023Z,1.58
2023-03-24T19:57:47.342Z,2.13
2023-03-24T20:00:32.984Z,1.73
2023-03-24T20:03:18.511Z,1.92
2023-03-24T20:06:08.815Z,2.17
2023-03-24T20:08:54.404Z,1.95
2023-03-24T20:11:40.769Z,1.95
2023-03-24T20:14:26.510Z,2.00
2023-03-24T20:17:18.859Z,1.83
2023-03-24T20:20:07.172Z,1.70
2023-03-24T20:22:52.568Z,1.73
2023-03-24T20:25:44.186Z,1.73
2023-03-24T20:28:29.915Z,1.73
2023-03-24T20:31:15.430Z,1.85
2023-03-24T20:34:00.856Z,1.60
2023-03-24T20:36:46.418Z,1.60
2023-03-24T20:39:32.191Z,1.50
2023-03-24T20:42:20.185Z,1.63
2023-03-24T20:45:10.811Z,1.42
2023-03-24T20:47:56.549Z,1.83
2023-03-24T20:50:41.663Z,1.95
2023-03-24T20:53:27.835Z,1.75
2023-03-24T20:56:14.989Z,2.22
2023-03-24T20:59:01.107Z,2.05
2023-03-24T21:01:48.408Z,1.70
2023-03-24T21:04:34.138Z,1.52
2023-03-24T21:07:19.567Z,1.90
2023-03-24T21:10:06.511Z,2.00
2023-03-24T21:12:53.261Z,2.30
2023-03-24T21:15:44.408Z,2.25
2023-03-24T21:18:32.347Z,1.80
2023-03-24T21:21:17.761Z,2.10
2023-03-24T21:24:04.258Z,1.90
2023-03-24T21:26:50.807Z,1.90
2023-03-24T21:29:36.552Z,1.70
2023-03-24T21:32:21.706Z,1.80
2023-03-24T21:35:08.999Z,2.20
2023-03-24T21:37:54.499Z,2.28
2023-03-24T21:40:39.738Z,2.30
2023-03-24T21:43:27.156Z,2.53
2023-03-24T21:46:14.920Z,1.98
2023-03-24T21:49:00.932Z,3.05
2023-03-24T21:51:46.657Z,2.75
2023-03-24T21:54:33.416Z,2.47
2023-03-24T21:57:19.908Z,2.58
2023-03-24T22:00:11.195Z,2.00
2023-03-24T22:02:58.059Z,2.22
2023-03-24T22:05:44.218Z,2.22
2023-03-24T22:08:30.489Z,2.30
2023-03-24T22:11:18.371Z,2.05
2023-03-24T22:14:04.202Z,2.15
2023-03-24T22:16:49.788Z,2.08
2023-03-24T22:19:35.386Z,1.92
2023-03-24T22:22:20.768Z,2.33
2023-03-24T22:25:08.402Z,2.90
2023-03-24T22:27:55.955Z,1.83
2023-03-24T22:30:41.530Z,2.40
2023-03-24T22:33:26.962Z,2.00
2023-03-24T22:36:12.277Z,2.03
2023-03-24T22:38:57.809Z,2.17
2023-03-24T22:41:43.784Z,2.55
2023-03-24T22:44:31.815Z,2.28
2023-03-24T22:47:17.067Z,2.25
2023-03-24T22:50:02.556Z,1.85
2023-03-24T22:52:47.998Z,2.42
2023-03-24T22:55:33.545Z,2.28
2023-03-24T22:58:18.890Z,2.35
2023-03-24T23:01:06.093Z,2.10
2023-03-24T23:03:51.806Z,2.25
2023-03-24T23:06:37.294Z,1.95
2023-03-24T23:09:23.445Z,2.50
2023-03-24T23:12:09.564Z,2.75
2023-03-24T23:14:54.795Z,2.28
2023-03-24T23:17:42.600Z,2.00
2023-03-24T23:20:28.318Z,2.63
2023-03-24T23:23:15.399Z,2.88
2023-03-24T23:26:01.361Z,2.55
2023-03-24T23:28:47.767Z,2.40
2023-03-24T23:31:35.569Z,2.38
2023-03-24T23:34:21.373Z,2.90
2023-03-24T23:37:06.574Z,2.53
2023-03-24T23:39:52.172Z,3.20
2023-03-24T23:42:38.277Z,2.53
2023-03-24T23:45:23.909Z,2.15
2023-03-24T23:48:09.185Z,2.80
2023-03-24T23:51:03.785Z,2.70
2023-03-24T23:53:49.099Z,2.80
2023-03-24T23:56:37.091Z,2.80
2023-03-24T23:59:22.514Z,2.67
